createdAt,value
2023-01-06T00:01:25.900Z,9.47
2023-01-06T00:03:54.363Z,9.46
2023-01-06T00:06:27.606Z,9.50
2023-01-06T00:09:03.656Z,9.49
2023-01-06T00:11:30.961Z,9.47
2023-01-06T00:13:57.623Z,9.46
2023-01-06T00:16:24.468Z,9.46
2023-01-06T00:18:54.712Z,9.49
2023-01-06T00:21:21.051Z,9.59
2023-01-06T00:23:47.474Z,9.50
2023-01-06T00:26:14.213Z,9.47
2023-01-06T00:28:40.758Z,9.49
2023-01-06T00:31:15.306Z,9.49
2023-01-06T00:33:42.937Z,9.46
2023-01-06T00:36:11.386Z,9.47
2023-01-06T00:38:38.649Z,9.49
2023-01-06T00:41:26.966Z,9.49
2023-01-06T00:43:53.486Z,9.48
2023-01-06T00:46:20.486Z,9.46
2023-01-06T00:49:03.669Z,9.48
2023-01-06T00:51:31.633Z,9.47
2023-01-06T00:53:59.879Z,9.43
2023-01-06T00:56:26.285Z,9.43
2023-01-06T00:58:52.781Z,9.43
2023-01-06T01:01:19.250Z,9.50
2023-01-06T01:03:46.034Z,9.49
2023-01-06T01:06:12.485Z,9.46
2023-01-06T01:08:38.971Z,9.48
2023-01-06T01:11:08.187Z,9.49
2023-01-06T01:13:34.867Z,9.48
2023-01-06T01:16:08.527Z,9.47
2023-01-06T01:18:36.036Z,9.49
2023-01-06T01:21:03.285Z,9.50
2023-01-06T01:23:30.064Z,9.50
2023-01-06T01:25:59.890Z,9.49
2023-01-06T01:28:26.384Z,9.51
2023-01-06T01:31:00.027Z,9.50
2023-01-06T01:33:28.388Z,9.47
2023-01-06T01:35:54.783Z,9.48
2023-01-06T01:38:21.286Z,9.51
2023-01-06T01:40:50.818Z,9.49
2023-01-06T01:43:17.806Z,9.54
2023-01-06T01:45:50.286Z,9.51
2023-01-06T01:48:35.099Z,9.58
2023-01-06T01:51:06.223Z,9.51
2023-01-06T01:53:38.892Z,9.54
2023-01-06T01:56:09.363Z,9.57
2023-01-06T01:58:42.324Z,9.56
2023-01-06T02:01:10.873Z,9.55
2023-01-06T02:03:40.792Z,9.53
2023-01-06T02:06:14.264Z,9.62
2023-01-06T02:08:55.138Z,9.61
2023-01-06T02:11:23.596Z,9.61
2023-01-06T02:13:57.072Z,9.62
2023-01-06T02:16:23.444Z,9.62
2023-01-06T02:19:02.256Z,9.62
2023-01-06T02:21:41.710Z,9.64
2023-01-06T02:24:44.534Z,9.70
2023-01-06T02:27:49.763Z,9.71
2023-01-06T02:30:30.057Z,9.70
2023-01-06T02:33:15.060Z,9.84
2023-01-06T02:36:20.051Z,9.77
2023-01-06T02:39:12.874Z,9.78
2023-01-06T02:41:57.863Z,9.81
2023-01-06T02:44:30.199Z,9.81
2023-01-06T02:47:15.027Z,9.83
2023-01-06T02:49:44.188Z,9.80
2023-01-06T02:52:19.226Z,9.86
2023-01-06T02:54:48.447Z,9.87
2023-01-06T02:57:25.690Z,9.91
2023-01-06T03:00:18.303Z,9.91
2023-01-06T03:02:53.148Z,9.98
2023-01-06T03:05:21.798Z,9.98
2023-01-06T03:07:49.258Z,9.96
2023-01-06T03:10:20.077Z,10.05
2023-01-06T03:13:09.306Z,10.11
2023-01-06T03:15:36.328Z,10.10
2023-01-06T03:18:03.315Z,10.09
2023-01-06T03:20:29.981Z,10.16
2023-01-06T03:22:56.527Z,10.14
2023-01-06T03:25:23.281Z,10.23
2023-01-06T03:27:50.053Z,10.27
2023-01-06T03:30:17.410Z,10.29
2023-01-06T03:32:53.747Z,10.34
2023-01-06T03:35:51.147Z,10.42
2023-01-06T03:38:47.200Z,10.46
2023-01-06T03:41:54.875Z,10.47
2023-01-06T03:44:42.789Z,10.43
2023-01-06T03:47:21.892Z,10.51
2023-01-06T03:49:59.120Z,10.55
2023-01-06T03:52:31.441Z,10.64
2023-01-06T03:55:10.055Z,10.67
2023-01-06T03:57:39.889Z,10.71
2023-01-06T04:00:12.639Z,10.78
2023-01-06T04:02:40.867Z,10.82
2023-01-06T04:05:12.803Z,10.84
2023-01-06T04:07:40.749Z,10.93
2023-01-06T04:10:08.317Z,10.98
2023-01-06T04:12:40.687Z,10.99
2023-01-06T04:15:20.404Z,11.10
2023-01-06T04:17:47.769Z,11.08
2023-01-06T04:20:26.012Z,11.13
2023-01-06T04:22:57.284Z,11.19
2023-01-06T04:25:24.477Z,11.22
2023-01-06T04:27:51.227Z,11.22
2023-01-06T04:30:18.088Z,11.23
2023-01-06T04:32:47.199Z,11.24
2023-01-06T04:35:13.663Z,11.29
2023-01-06T04:37:40.075Z,11.31
2023-01-06T04:40:07.802Z,11.33
2023-01-06T04:42:54.493Z,11.36
2023-01-06T04:45:21.526Z,11.37
2023-01-06T04:47:47.985Z,11.40
2023-01-06T04:50:14.998Z,11.37
2023-01-06T04:52:41.546Z,11.31
2023-01-06T04:55:08.858Z,11.39
2023-01-06T04:57:35.486Z,11.44
2023-01-06T05:00:02.063Z,11.42
2023-01-06T05:02:28.803Z,11.39
2023-01-06T05:04:55.198Z,11.47
2023-01-06T05:07:21.617Z,11.42
2023-01-06T05:09:48.098Z,11.52
2023-01-06T05:12:14.499Z,11.55
2023-01-06T05:14:40.935Z,11.54
2023-01-06T05:17:07.410Z,11.54
2023-01-06T05:19:33.803Z,11.51
2023-01-06T05:22:00.277Z,11.54
2023-01-06T05:24:26.655Z,11.56
2023-01-06T05:26:54.848Z,11.58
2023-01-06T05:29:21.297Z,11.57
2023-01-06T05:31:47.707Z,11.53
2023-01-06T05:34:14.323Z,11.60
2023-01-06T05:36:40.729Z,11.61
2023-01-06T05:39:07.146Z,11.63
2023-01-06T05:41:33.531Z,11.56
2023-01-06T05:44:00.011Z,11.64
2023-01-06T05:46:26.399Z,11.63
2023-01-06T05:48:52.890Z,11.67
2023-01-06T05:51:19.396Z,11.64
2023-01-06T05:53:48.831Z,11.63
2023-01-06T05:56:17.970Z,11.66
2023-01-06T05:58:46.477Z,11.66
2023-01-06T06:01:22.221Z,11.62
2023-01-06T06:03:49.594Z,11.53
2023-01-06T06:06:17.449Z,11.64
2023-01-06T06:08:43.918Z,11.62
2023-01-06T06:11:12.644Z,11.62
2023-01-06T06:13:45.016Z,11.61
2023-01-06T06:16:13.634Z,11.53
2023-01-06T06:18:44.327Z,11.59
2023-01-06T06:21:12.944Z,11.54
2023-01-06T06:23:39.709Z,11.57
2023-01-06T06:26:07.381Z,11.53
2023-01-06T06:28:35.035Z,11.58
2023-01-06T06:31:10.980Z,11.61
2023-01-06T06:33:37.491Z,11.56
2023-01-06T06:36:05.630Z,11.57
2023-01-06T06:38:32.097Z,11.60
2023-01-06T06:40:58.538Z,11.60
2023-01-06T06:43:24.938Z,11.60
2023-01-06T06:45:51.353Z,11.61
2023-01-06T06:48:17.784Z,11.61
2023-01-06T06:50:44.223Z,11.54
2023-01-06T06:53:10.618Z,11.55
2023-01-06T06:55:37.064Z,11.61
2023-01-06T06:58:03.551Z,11.55
2023-01-06T07:00:30.161Z,11.54
2023-01-06T07:02:56.590Z,11.48
2023-01-06T07:05:25.508Z,11.53
2023-01-06T07:07:52.104Z,11.57
2023-01-06T07:10:19.173Z,11.54
2023-01-06T07:12:45.979Z,11.53
2023-01-06T07:15:12.423Z,11.55
2023-01-06T07:17:39.639Z,11.56
2023-01-06T07:20:06.339Z,11.49
2023-01-06T07:22:32.783Z,11.50
2023-01-06T07:24:59.240Z,11.51
2023-01-06T07:27:25.626Z,11.50
2023-01-06T07:29:52.040Z,11.53
2023-01-06T07:32:18.496Z,11.50
2023-01-06T07:34:44.997Z,11.53
2023-01-06T07:37:11.535Z,11.54
2023-01-06T07:39:37.993Z,11.46
2023-01-06T07:42:04.445Z,11.46
2023-01-06T07:44:31.064Z,11.50
2023-01-06T07:46:57.587Z,11.53
2023-01-06T07:49:24.071Z,11.44
2023-01-06T07:51:50.480Z,11.45
2023-01-06T07:54:17.247Z,11.52
2023-01-06T07:56:44.210Z,11.54
2023-01-06T07:59:11.042Z,11.48
2023-01-06T08:01:37.762Z,11.55
2023-01-06T08:04:04.435Z,11.53
2023-01-06T08:06:31.169Z,11.55
2023-01-06T08:08:57.591Z,11.56
2023-01-06T08:11:24.183Z,11.56
2023-01-06T08:13:50.606Z,11.51
2023-01-06T08:16:17.309Z,11.54
2023-01-06T08:18:43.779Z,11.57
2023-01-06T08:21:11.464Z,11.56
2023-01-06T08:23:38.345Z,11.51
2023-01-06T08:26:10.331Z,11.59
2023-01-06T08:28:37.048Z,11.50
2023-01-06T08:31:03.674Z,11.56
2023-01-06T08:33:30.241Z,11.53
2023-01-06T08:36:00.990Z,11.49
2023-01-06T08:38:28.941Z,11.49
2023-01-06T08:40:56.856Z,11.55
2023-01-06T08:43:24.089Z,11.57
2023-01-06T08:45:50.960Z,11.52
2023-01-06T08:48:17.609Z,11.50
2023-01-06T08:50:44.367Z,11.56
2023-01-06T08:53:11.711Z,11.57
2023-01-06T08:55:39.682Z,11.60
2023-01-06T08:58:06.477Z,11.55
2023-01-06T09:00:33.110Z,11.59
2023-01-06T09:02:59.513Z,11.59
2023-01-06T09:05:26.127Z,11.60
2023-01-06T09:07:52.620Z,11.63
2023-01-06T09:10:19.623Z,11.62
2023-01-06T09:12:46.318Z,11.63
2023-01-06T09:15:13.096Z,11.62
2023-01-06T09:17:39.675Z,11.62
2023-01-06T09:20:06.433Z,11.53
2023-01-06T09:22:32.916Z,11.61
2023-01-06T09:24:59.584Z,11.61
2023-01-06T09:27:26.106Z,11.58
2023-01-06T09:29:53.022Z,11.55
2023-01-06T09:32:19.458Z,11.60
2023-01-06T09:34:46.097Z,11.54
2023-01-06T09:37:12.474Z,11.58
2023-01-06T09:39:39.803Z,11.55
2023-01-06T09:42:33.022Z,11.61
2023-01-06T09:45:16.288Z,11.58
2023-01-06T09:48:00.174Z,11.60
2023-01-06T09:50:55.906Z,11.65
2023-01-06T09:53:30.557Z,11.56
2023-01-06T09:56:00.992Z,11.58
2023-01-06T09:58:31.264Z,11.47
2023-01-06T10:01:01.034Z,11.67
2023-01-06T10:03:27.832Z,11.53
2023-01-06T10:06:18.091Z,11.60
2023-01-06T10:09:04.330Z,11.60
2023-01-06T10:12:18.499Z,11.58
2023-01-06T10:15:12.500Z,11.58
2023-01-06T10:17:53.577Z,11.62
2023-01-06T10:21:01.176Z,11.63
2023-01-06T10:23:51.674Z,11.68
2023-01-06T10:26:32.894Z,11.70
2023-01-06T10:29:06.634Z,11.72
2023-01-06T10:31:37.226Z,11.73
2023-01-06T10:34:05.783Z,11.78
2023-01-06T10:36:42.258Z,11.79
2023-01-06T10:39:19.229Z,11.80
2023-01-06T10:42:30.485Z,11.90
2023-01-06T10:44:56.944Z,11.87
2023-01-06T10:47:28.413Z,11.90
2023-01-06T10:49:55.054Z,11.92
2023-01-06T10:52:24.262Z,11.90
2023-01-06T10:54:54.165Z,11.85
2023-01-06T10:57:26.727Z,11.87
2023-01-06T11:00:12.393Z,11.95
2023-01-06T11:02:46.840Z,11.83
2023-01-06T11:05:17.865Z,11.85
2023-01-06T11:07:51.629Z,11.89
2023-01-06T11:10:27.405Z,11.86
2023-01-06T11:12:56.422Z,11.90
2023-01-06T11:15:28.310Z,11.92
2023-01-06T11:17:54.843Z,11.90
2023-01-06T11:20:21.232Z,11.96
2023-01-06T11:22:48.433Z,12.00
2023-01-06T11:25:20.614Z,12.07
2023-01-06T11:27:48.418Z,12.09
2023-01-06T11:30:28.741Z,12.12
2023-01-06T11:32:55.283Z,12.19
2023-01-06T11:35:33.537Z,12.06
2023-01-06T11:38:01.028Z,12.04
2023-01-06T11:40:33.597Z,12.07
2023-01-06T11:43:06.261Z,12.13
2023-01-06T11:45:33.169Z,12.14
2023-01-06T11:48:00.051Z,12.18
2023-01-06T11:50:26.639Z,12.19
2023-01-06T11:53:04.750Z,12.20
2023-01-06T11:55:34.247Z,12.16
2023-01-06T11:58:12.005Z,12.19
2023-01-06T12:00:52.931Z,12.23
2023-01-06T12:03:19.628Z,12.33
2023-01-06T12:06:04.636Z,12.48
2023-01-06T12:08:46.807Z,12.64
2023-01-06T12:11:19.561Z,12.80
2023-01-06T12:14:08.392Z,12.98
2023-01-06T12:16:39.094Z,13.12
2023-01-06T12:19:16.414Z,13.22
2023-01-06T12:21:43.040Z,13.30
2023-01-06T12:24:20.808Z,13.43
2023-01-06T12:26:48.133Z,13.43
2023-01-06T12:29:20.572Z,13.46
2023-01-06T12:32:09.975Z,13.41
2023-01-06T12:34:50.233Z,13.22
2023-01-06T12:37:27.639Z,13.27
2023-01-06T12:40:05.014Z,12.97
2023-01-06T12:43:11.521Z,12.80
2023-01-06T12:45:46.679Z,12.61
2023-01-06T12:48:43.747Z,12.51
2023-01-06T12:51:19.329Z,12.33
2023-01-06T12:53:55.553Z,12.25
2023-01-06T12:56:47.233Z,12.12
2023-01-06T12:59:19.678Z,12.05
2023-01-06T13:01:54.733Z,12.01
2023-01-06T13:04:52.613Z,12.05
2023-01-06T13:07:40.118Z,12.09
2023-01-06T13:10:31.387Z,12.03
2023-01-06T13:13:16.657Z,12.06
2023-01-06T13:15:45.420Z,12.07
2023-01-06T13:18:21.198Z,12.08
2023-01-06T13:20:51.948Z,12.04
2023-01-06T13:23:34.775Z,12.09
2023-01-06T13:26:22.148Z,12.12
2023-01-06T13:29:24.028Z,12.12
2023-01-06T13:32:20.516Z,12.09
2023-01-06T13:35:20.714Z,12.04
2023-01-06T13:38:28.418Z,12.05
2023-01-06T13:40:59.678Z,12.02
2023-01-06T13:43:32.278Z,11.97
2023-01-06T13:46:09.968Z,11.97
2023-01-06T13:48:39.965Z,11.88
2023-01-06T13:51:10.033Z,11.88
2023-01-06T13:53:42.836Z,11.88
2023-01-06T13:56:12.251Z,11.87
2023-01-06T13:58:40.770Z,11.87
2023-01-06T14:01:19.598Z,11.87
2023-01-06T14:03:50.200Z,11.92
2023-01-06T14:06:22.985Z,11.96
2023-01-06T14:08:58.719Z,11.99
2023-01-06T14:11:32.463Z,11.94
2023-01-06T14:14:12.769Z,11.92
2023-01-06T14:16:39.387Z,11.95
2023-01-06T14:19:08.709Z,11.89
2023-01-06T14:21:35.759Z,11.85
2023-01-06T14:24:08.507Z,11.81
2023-01-06T14:26:58.457Z,11.81
2023-01-06T14:29:40.220Z,11.75
2023-01-06T14:32:16.805Z,11.70
2023-01-06T14:34:52.433Z,11.67
2023-01-06T14:37:23.066Z,11.63
2023-01-06T14:39:54.087Z,11.60
2023-01-06T14:42:38.744Z,11.59
2023-01-06T14:45:13.119Z,11.53
2023-01-06T14:47:46.291Z,11.49
2023-01-06T14:50:46.146Z,11.45
2023-01-06T14:53:38.968Z,11.42
2023-01-06T14:56:07.114Z,11.32
2023-01-06T14:58:38.715Z,11.26
2023-01-06T15:01:21.814Z,11.24
2023-01-06T15:03:57.780Z,11.17
2023-01-06T15:06:25.710Z,11.10
2023-01-06T15:08:52.231Z,11.06
2023-01-06T15:11:27.671Z,11.07
2023-01-06T15:13:54.842Z,11.01
2023-01-06T15:16:39.344Z,11.00
2023-01-06T15:19:07.628Z,10.92
2023-01-06T15:21:40.417Z,10.89
2023-01-06T15:24:24.996Z,10.88
2023-01-06T15:26:53.761Z,10.84
2023-01-06T15:29:24.195Z,10.80
2023-01-06T15:31:53.060Z,10.76
2023-01-06T15:34:22.802Z,10.74
2023-01-06T15:36:53.452Z,10.72
2023-01-06T15:39:27.108Z,10.70
2023-01-06T15:41:54.527Z,10.67
2023-01-06T15:44:27.328Z,10.65
2023-01-06T15:47:11.677Z,10.67
2023-01-06T15:49:42.837Z,10.61
2023-01-06T15:52:21.551Z,10.60
2023-01-06T15:54:48.502Z,10.57
2023-01-06T15:57:17.373Z,10.55
2023-01-06T15:59:56.652Z,10.58
2023-01-06T16:02:26.023Z,10.55
2023-01-06T16:04:52.735Z,10.53
2023-01-06T16:07:41.019Z,10.55
2023-01-06T16:10:36.762Z,10.53
2023-01-06T16:13:18.567Z,10.49
2023-01-06T16:15:45.340Z,10.42
2023-01-06T16:18:13.169Z,10.37
2023-01-06T16:20:39.909Z,10.29
2023-01-06T16:23:06.624Z,10.20
2023-01-06T16:25:35.345Z,10.18
2023-01-06T16:28:04.394Z,10.14
2023-01-06T16:30:36.528Z,10.09
2023-01-06T16:33:03.740Z,10.04
2023-01-06T16:35:32.453Z,9.99
2023-01-06T16:37:59.227Z,9.95
2023-01-06T16:40:27.610Z,9.91
2023-01-06T16:43:02.161Z,9.90
2023-01-06T16:45:31.587Z,9.88
2023-01-06T16:47:58.595Z,9.83
2023-01-06T16:50:36.490Z,9.82
2023-01-06T16:53:21.109Z,9.75
2023-01-06T16:55:55.394Z,9.73
2023-01-06T16:58:30.016Z,9.69
2023-01-06T17:01:04.901Z,9.67
2023-01-06T17:03:36.661Z,9.62
2023-01-06T17:06:03.445Z,9.52
2023-01-06T17:08:38.457Z,9.51
2023-01-06T17:11:16.378Z,9.49
2023-01-06T17:13:51.458Z,9.42
2023-01-06T17:16:21.323Z,9.41
2023-01-06T17:18:56.671Z,9.40
2023-01-06T17:21:26.769Z,9.36
2023-01-06T17:23:57.624Z,9.38
2023-01-06T17:26:24.982Z,9.36
2023-01-06T17:28:54.126Z,9.30
2023-01-06T17:31:34.115Z,9.31
2023-01-06T17:34:22.310Z,9.31
2023-01-06T17:36:53.247Z,9.28
2023-01-06T17:39:30.131Z,9.24
2023-01-06T17:42:12.672Z,9.21
2023-01-06T17:44:48.307Z,9.17
2023-01-06T17:47:15.228Z,9.14
2023-01-06T17:49:47.591Z,9.11
2023-01-06T17:52:35.493Z,9.07
2023-01-06T17:55:41.935Z,9.06
2023-01-06T17:58:17.984Z,9.00
2023-01-06T18:00:45.562Z,8.97
2023-01-06T18:03:18.975Z,8.93
2023-01-06T18:05:45.590Z,8.95
2023-01-06T18:08:17.318Z,8.94
2023-01-06T18:11:02.757Z,8.87
2023-01-06T18:13:35.650Z,8.86
2023-01-06T18:16:05.754Z,8.86
2023-01-06T18:18:40.297Z,8.90
2023-01-06T18:21:16.182Z,8.89
2023-01-06T18:23:45.610Z,8.90
2023-01-06T18:26:27.115Z,8.93
2023-01-06T18:29:00.176Z,8.91
2023-01-06T18:31:33.890Z,8.91
2023-01-06T18:34:08.142Z,8.89
2023-01-06T18:36:34.544Z,8.88
2023-01-06T18:39:01.487Z,8.84
2023-01-06T18:41:28.660Z,8.82
2023-01-06T18:43:58.114Z,8.81
2023-01-06T18:46:26.189Z,8.80
2023-01-06T18:48:54.676Z,8.78
2023-01-06T18:51:24.425Z,8.78
2023-01-06T18:53:52.191Z,8.77
2023-01-06T18:56:26.916Z,8.82
2023-01-06T18:58:57.191Z,8.80
2023-01-06T19:01:23.713Z,8.80
2023-01-06T19:04:19.076Z,8.80
2023-01-06T19:06:49.821Z,8.83
2023-01-06T19:09:43.774Z,8.84
2023-01-06T19:12:36.994Z,8.79
2023-01-06T19:15:29.605Z,8.81
2023-01-06T19:17:56.047Z,8.78
2023-01-06T19:20:26.760Z,8.79
2023-01-06T19:22:55.217Z,8.73
2023-01-06T19:25:40.479Z,8.81
2023-01-06T19:28:16.894Z,8.77
2023-01-06T19:30:48.105Z,8.74
2023-01-06T19:34:06.068Z,8.75
2023-01-06T19:36:49.207Z,8.73
2023-01-06T19:39:24.017Z,8.66
2023-01-06T19:41:55.915Z,8.58
2023-01-06T19:44:32.154Z,8.64
2023-01-06T19:47:00.515Z,8.61
2023-01-06T19:49:37.600Z,8.59
2023-01-06T19:52:24.289Z,8.59
2023-01-06T19:54:50.726Z,8.55
2023-01-06T19:57:32.702Z,8.57
2023-01-06T20:00:01.633Z,8.51
2023-01-06T20:02:31.655Z,8.50
2023-01-06T20:04:58.320Z,8.44
2023-01-06T20:07:24.760Z,8.40
2023-01-06T20:09:51.245Z,8.39
2023-01-06T20:12:17.755Z,8.35
2023-01-06T20:14:44.200Z,8.32
2023-01-06T20:17:10.883Z,8.30
2023-01-06T20:19:37.250Z,8.25
2023-01-06T20:22:03.681Z,8.22
2023-01-06T20:24:30.231Z,8.20
2023-01-06T20:26:56.671Z,8.17
2023-01-06T20:29:23.107Z,8.08
2023-01-06T20:31:49.559Z,8.09
2023-01-06T20:34:16.139Z,8.04
2023-01-06T20:36:42.877Z,8.02
2023-01-06T20:39:09.439Z,7.99
2023-01-06T20:41:35.834Z,7.96
2023-01-06T20:44:02.221Z,7.94
2023-01-06T20:46:28.664Z,7.95
2023-01-06T20:48:55.066Z,7.95
2023-01-06T20:51:21.438Z,7.93
2023-01-06T20:53:47.827Z,7.91
2023-01-06T20:56:14.239Z,7.89
2023-01-06T20:58:40.655Z,7.87
2023-01-06T21:01:07.269Z,7.84
2023-01-06T21:03:33.793Z,7.80
2023-01-06T21:06:00.182Z,7.78
2023-01-06T21:08:26.611Z,7.74
2023-01-06T21:10:53.060Z,7.66
2023-01-06T21:13:23.969Z,7.70
2023-01-06T21:15:50.692Z,7.66
2023-01-06T21:18:17.117Z,7.69
2023-01-06T21:20:43.633Z,7.66
2023-01-06T21:23:10.026Z,7.66
2023-01-06T21:25:36.455Z,7.66
2023-01-06T21:28:02.987Z,7.64
2023-01-06T21:30:31.646Z,7.61
2023-01-06T21:32:58.095Z,7.61
2023-01-06T21:35:24.505Z,7.60
2023-01-06T21:37:51.173Z,7.61
2023-01-06T21:40:17.637Z,7.62
2023-01-06T21:43:02.725Z,7.65
2023-01-06T21:45:29.222Z,7.66
2023-01-06T21:47:56.245Z,7.64
2023-01-06T21:50:25.423Z,7.66
2023-01-06T21:52:53.577Z,7.73
2023-01-06T21:55:20.318Z,7.74
2023-01-06T21:57:47.362Z,7.70
2023-01-06T22:00:14.269Z,7.77
2023-01-06T22:02:41.310Z,7.79
2023-01-06T22:05:08.450Z,7.75
2023-01-06T22:07:38.345Z,7.81
2023-01-06T22:10:06.915Z,7.86
2023-01-06T22:12:34.156Z,7.85
2023-01-06T22:15:01.155Z,7.89
2023-01-06T22:17:27.720Z,7.87
2023-01-06T22:19:55.181Z,7.90
2023-01-06T22:22:22.589Z,7.92
2023-01-06T22:24:51.891Z,7.94
2023-01-06T22:27:18.296Z,7.98
2023-01-06T22:29:44.771Z,7.93
2023-01-06T22:32:11.371Z,7.96
2023-01-06T22:34:37.768Z,7.93
2023-01-06T22:37:04.188Z,7.93
2023-01-06T22:39:30.646Z,7.87
2023-01-06T22:41:57.102Z,7.90
2023-01-06T22:44:23.569Z,7.86
2023-01-06T22:46:49.969Z,7.84
2023-01-06T22:49:16.377Z,7.77
2023-01-06T22:51:43.709Z,7.74
2023-01-06T22:54:10.271Z,7.76
2023-01-06T22:56:36.817Z,7.73
2023-01-06T22:59:03.597Z,7.70
2023-01-06T23:01:30.214Z,7.71
2023-01-06T23:03:56.650Z,7.74
2023-01-06T23:06:23.177Z,7.73
2023-01-06T23:08:59.672Z,7.73
2023-01-06T23:11:27.933Z,7.68
2023-01-06T23:13:58.395Z,7.62
2023-01-06T23:16:26.278Z,7.70
2023-01-06T23:18:53.397Z,7.52
2023-01-06T23:21:23.276Z,7.45
2023-01-06T23:23:51.018Z,7.35
2023-01-06T23:26:22.817Z,7.26
2023-01-06T23:28:51.250Z,7.21
2023-01-06T23:31:20.732Z,7.16
2023-01-06T23:33:49.846Z,7.08
2023-01-06T23:36:18.576Z,7.02
2023-01-06T23:38:45.249Z,6.98
2023-01-06T23:41:32.418Z,6.97
2023-01-06T23:44:00.050Z,6.92
2023-01-06T23:46:29.667Z,6.95
2023-01-06T23:48:56.833Z,6.93
2023-01-06T23:51:24.164Z,6.92
2023-01-06T23:53:51.854Z,6.90
2023-01-06T23:56:20.805Z,6.88
2023-01-06T23:58:49.060Z,6.86
